Time;durP1;ratioP1;P1;durP2;ratioP2;P2;SDS_P1;SDS_P2;PMS_P1;PMS_P2;Temp;Humidity;BMP_temperature;BMP_pressure;BME280_temperature;BME280_humidity;BME280_pressure;Samples;Min_cycle;Max_cycle;Signal;HPM_P1;HPM_P2
2023/01/23 00:01:17;;;;;;;67.47;26.73;;;;;;;-141.97;100.00;47936.19;5071797;28;20549;-86
2023/01/23 00:03:42;;;;;;;74.00;25.70;;;;;;;-141.97;100.00;47861.22;5073448;28;20165;-85
2023/01/23 00:06:11;;;;;;;69.60;25.97;;;;;;;-141.97;100.00;47903.50;5082117;28;20219;-85
2023/01/23 00:08:38;;;;;;;64.80;26.57;;;;;;;-141.97;100.00;47772.78;5067889;28;20610;-85
2023/01/23 00:11:08;;;;;;;68.67;26.00;;;;;;;-141.97;100.00;47813.16;5066748;28;20170;-87
2023/01/23 00:13:34;;;;;;;70.43;26.83;;;;;;;-141.97;100.00;47870.81;5064312;28;20540;-86
2023/01/23 00:16:06;;;;;;;69.07;24.47;;;;;;;-141.97;100.00;47842.00;5057671;28;20830;-86
2023/01/23 00:18:32;;;;;;;63.03;26.00;;;;;;;-141.97;100.00;47884.28;5052332;28;20680;-85
2023/01/23 00:20:57;;;;;;;64.67;24.70;;;;;;;-141.97;100.00;47849.69;5053977;28;20162;-86
2023/01/23 00:23:23;;;;;;;65.07;24.90;;;;;;;-141.97;100.00;47872.75;5052951;28;20158;-85
2023/01/23 00:25:48;;;;;;;65.77;23.83;;;;;;;-141.97;100.00;47818.94;5077946;28;20165;-86
2023/01/23 00:28:14;;;;;;;64.00;24.40;;;;;;;-141.97;100.00;47838.16;5066221;28;20184;-86
2023/01/23 00:30:39;;;;;;;62.07;24.47;;;;;;;-141.97;100.00;47857.38;5068455;28;20172;-85
2023/01/23 00:33:05;;;;;;;62.90;23.47;;;;;;;-141.97;100.00;47772.78;5066629;28;20181;-86
2023/01/23 00:35:32;;;;;;;58.43;23.67;;;;;;;-141.97;100.00;47911.19;5061669;28;20169;-86
2023/01/23 00:37:58;;;;;;;65.87;24.70;;;;;;;-141.97;100.00;47870.81;5048933;28;20170;-86
2023/01/23 00:40:23;;;;;;;56.27;23.63;;;;;;;-141.97;100.00;47861.22;5039932;28;20170;-86
2023/01/23 00:42:49;;;;;;;66.90;23.87;;;;;;;-141.97;100.00;47855.44;5042253;28;20692;-86
2023/01/23 00:45:14;;;;;;;58.33;23.17;;;;;;;-141.97;100.00;47817.00;5041434;28;20174;-86
2023/01/23 00:47:39;;;;;;;62.07;23.80;;;;;;;-141.97;100.00;47924.66;5040820;28;20240;-86
2023/01/23 00:50:05;;;;;;;60.13;23.80;;;;;;;-141.97;100.00;47930.41;5052577;28;20181;-85
2023/01/23 00:52:31;;;;;;;60.30;23.10;;;;;;;-141.97;100.00;47792.03;5052738;28;20158;-85
2023/01/23 00:54:56;;;;;;;56.83;24.97;;;;;;;-141.97;100.00;47793.94;5052864;28;20204;-85
2023/01/23 00:57:21;;;;;;;60.97;23.63;;;;;;;-141.97;100.00;47903.50;5063990;28;20157;-85
2023/01/23 00:59:47;;;;;;;66.37;24.13;;;;;;;-141.97;100.00;47807.41;5074521;28;20199;-84
2023/01/23 01:02:12;;;;;;;65.40;25.77;;;;;;;-141.97;100.00;48003.47;5073816;28;20275;-85
2023/01/23 01:04:38;;;;;;;63.97;25.20;;;;;;;-141.97;100.00;47880.44;5056872;28;20490;-86
2023/01/23 01:07:03;;;;;;;70.97;25.80;;;;;;;-141.97;100.00;47767.03;5053036;28;20162;-85
2023/01/23 01:09:28;;;;;;;62.83;24.07;;;;;;;-141.97;100.00;47932.34;5052781;28;20173;-86
2023/01/23 01:11:54;;;;;;;69.43;25.53;;;;;;;-141.97;100.00;47790.09;5052637;28;20242;-86
2023/01/23 01:14:19;;;;;;;66.33;24.57;;;;;;;-141.97;100.00;47876.59;5051995;28;20576;-85
2023/01/23 01:16:45;;;;;;;71.33;25.90;;;;;;;-141.97;100.00;47918.88;5052446;28;20240;-85
2023/01/23 01:19:16;;;;;;;57.33;23.80;;;;;;;-141.97;100.00;47801.63;5052143;28;20550;-85
2023/01/23 01:21:42;;;;;;;61.70;23.57;;;;;;;-141.97;100.00;47843.91;5052277;28;20585;-85
2023/01/23 01:24:08;;;;;;;61.30;22.93;;;;;;;-141.97;100.00;47830.47;5052717;28;20252;-85
2023/01/23 01:26:34;;;;;;;57.80;22.87;;;;;;;-141.97;100.00;47886.22;5051482;28;20188;-84
2023/01/23 01:29:00;;;;;;;68.00;23.60;;;;;;;-141.97;100.00;47851.59;5051789;28;20180;-85
2023/01/23 01:31:26;;;;;;;61.70;23.17;;;;;;;-141.97;100.00;47847.75;5050531;28;20173;-85
2023/01/23 01:33:51;;;;;;;58.53;22.20;;;;;;;-141.97;100.00;47897.75;5051791;28;20303;-85
2023/01/23 01:36:20;;;;;;;60.77;22.63;;;;;;;-141.97;100.00;47866.97;5051370;28;20176;-85
2023/01/23 01:38:46;;;;;;;57.97;22.90;;;;;;;-141.97;100.00;47784.34;5051111;28;20653;-85
2023/01/23 01:41:13;;;;;;;67.23;22.20;;;;;;;-141.97;100.00;47834.31;5050584;28;20234;-85
2023/01/23 01:43:39;;;;;;;63.17;23.47;;;;;;;-141.97;100.00;47780.47;5051683;28;20154;-85
2023/01/23 01:46:18;;;;;;;64.00;22.40;;;;;;;-141.97;100.00;47824.69;5051977;28;20169;-85
2023/01/23 01:48:46;;;;;;;60.83;22.33;;;;;;;-141.97;100.00;47920.81;5049858;28;20176;-85
2023/01/23 01:51:18;;;;;;;54.13;22.13;;;;;;;-141.97;100.00;47891.97;5051130;28;20327;-85
2023/01/23 01:53:47;;;;;;;59.93;22.90;;;;;;;-141.97;100.00;47870.81;5051391;28;20280;-86
2023/01/23 01:56:14;;;;;;;61.97;23.33;;;;;;;-141.97;100.00;47897.75;5051487;28;20172;-85
2023/01/23 01:58:43;;;;;;;62.70;23.57;;;;;;;-141.97;100.00;47888.13;5051259;28;20640;-85
2023/01/23 02:01:09;;;;;;;58.43;23.23;;;;;;;-141.97;100.00;47926.56;5051000;28;20170;-85
2023/01/23 02:03:36;;;;;;;58.70;23.40;;;;;;;-141.97;100.00;47926.56;5051918;28;20592;-85
2023/01/23 02:06:02;;;;;;;64.63;24.57;;;;;;;-141.97;100.00;47945.81;5051449;28;20169;-85
2023/01/23 02:08:33;;;;;;;60.20;24.27;;;;;;;-141.97;100.00;47878.53;5051597;28;21438;-85
2023/01/23 02:11:02;;;;;;;66.03;26.07;;;;;;;-141.97;100.00;47874.69;5051642;28;20658;-85
2023/01/23 02:13:34;;;;;;;63.37;24.93;;;;;;;-141.97;100.00;47861.22;5052028;28;20189;-85
2023/01/23 02:16:05;;;;;;;62.93;24.30;;;;;;;-141.97;100.00;47865.06;5054473;28;20267;-85
2023/01/23 02:18:33;;;;;;;65.73;25.43;;;;;;;-141.97;100.00;47963.09;5056290;28;20169;-84
2023/01/23 02:21:06;;;;;;;69.60;24.73;;;;;;;-141.97;100.00;47886.22;5062669;28;20180;-84
2023/01/23 02:23:40;;;;;;;71.77;24.83;;;;;;;-141.97;100.00;47888.13;5062082;28;20164;-85
2023/01/23 02:26:10;;;;;;;67.40;25.73;;;;;;;-141.97;100.00;47907.34;5056059;28;20172;-84
2023/01/23 02:28:47;;;;;;;65.40;24.97;;;;;;;-141.97;100.00;47915.03;5055180;28;20164;-85
2023/01/23 02:31:13;;;;;;;63.27;24.67;;;;;;;-141.97;100.00;47884.28;5054934;28;20165;-85
2023/01/23 02:33:38;;;;;;;58.90;25.07;;;;;;;-141.97;100.00;47899.66;5054960;28;20185;-86
2023/01/23 02:36:07;;;;;;;67.40;25.27;;;;;;;-141.97;100.00;47866.97;5054910;28;20173;-84
2023/01/23 02:38:37;;;;;;;65.60;26.17;;;;;;;-141.97;100.00;47920.81;5054931;28;20622;-85
2023/01/23 02:41:06;;;;;;;66.30;27.03;;;;;;;-141.97;100.00;47872.75;5054858;28;20200;-85
2023/01/23 02:43:37;;;;;;;62.93;25.30;;;;;;;-141.97;100.00;47761.25;5053851;28;20250;-85
2023/01/23 02:46:04;;;;;;;70.07;25.80;;;;;;;-141.97;100.00;47888.13;5053568;28;20177;-85
2023/01/23 02:48:30;;;;;;;67.93;25.47;;;;;;;-141.97;100.00;47728.59;5054740;28;20618;-84
2023/01/23 02:50:56;;;;;;;57.00;23.53;;;;;;;-141.97;100.00;47784.34;5054524;28;20260;-84
2023/01/23 02:53:21;;;;;;;58.27;24.73;;;;;;;-141.97;100.00;47859.28;5054737;28;20181;-85
2023/01/23 02:55:47;;;;;;;62.40;24.87;;;;;;;-141.97;100.00;47916.97;5054308;28;20256;-85
2023/01/23 03:00:56;;;;;;;64.73;24.87;;;;;;;-141.97;100.00;47878.53;5054878;28;20223;-85
2023/01/23 03:03:22;;;;;;;59.20;23.53;;;;;;;-141.97;100.00;47974.63;5052874;28;20169;-85
2023/01/23 03:05:47;;;;;;;57.17;24.03;;;;;;;-141.97;100.00;47876.59;5056768;28;20169;-85
2023/01/23 03:08:13;;;;;;;58.07;22.87;;;;;;;-141.97;100.00;47911.19;5058182;28;20618;-85
2023/01/23 03:10:38;;;;;;;61.27;22.47;;;;;;;-141.97;100.00;47955.41;5055067;28;20166;-85
2023/01/23 03:13:06;;;;;;;56.13;21.63;;;;;;;-141.97;100.00;47826.63;5053856;28;20279;-85
2023/01/23 03:15:32;;;;;;;58.03;22.77;;;;;;;-141.97;100.00;47853.53;5053886;28;20236;-85
2023/01/23 03:17:58;;;;;;;54.87;21.57;;;;;;;-141.97;100.00;47799.72;5053939;28;20232;-85
2023/01/23 03:20:25;;;;;;;58.57;21.90;;;;;;;-141.97;100.00;47903.50;5053859;28;20540;-84
2023/01/23 03:22:51;;;;;;;59.27;22.50;;;;;;;-141.97;100.00;47853.53;5052656;28;20266;-84
2023/01/23 03:25:17;;;;;;;58.87;21.60;;;;;;;-141.97;100.00;47991.94;5052242;28;20186;-84
2023/01/23 03:27:42;;;;;;;60.57;22.30;;;;;;;-141.97;100.00;47853.53;5054131;28;20169;-83
2023/01/23 03:30:19;;;;;;;51.07;19.40;;;;;;;-141.97;100.00;47822.78;5053909;28;20224;-83
2023/01/23 03:32:45;;;;;;;57.60;21.67;;;;;;;-141.97;100.00;47880.44;5054290;28;20188;-84
2023/01/23 03:35:15;;;;;;;57.17;20.73;;;;;;;-141.97;100.00;47792.03;5054183;28;20292;-85
2023/01/23 03:37:42;;;;;;;51.97;21.03;;;;;;;-141.97;100.00;47799.72;5053693;28;20204;-85
2023/01/23 03:43:17;;;;;;;54.00;21.07;;;;;;;-141.97;100.00;47878.53;4992266;28;20293;-86
2023/01/23 03:45:43;;;;;;;52.50;20.07;;;;;;;-141.97;100.00;47918.88;4992414;28;20644;-84
2023/01/23 03:48:08;;;;;;;60.20;21.63;;;;;;;-141.97;100.00;47911.19;4991985;28;20195;-85
2023/01/23 03:50:33;;;;;;;53.27;20.63;;;;;;;-141.97;100.00;47834.31;4991752;28;20171;-85
2023/01/23 03:52:59;;;;;;;54.63;20.97;;;;;;;-141.97;100.00;47890.06;4975947;28;20548;-85
2023/01/23 03:55:24;;;;;;;50.80;19.97;;;;;;;-141.97;100.00;47972.72;4992431;28;20230;-85
2023/01/23 03:57:50;;;;;;;56.70;21.30;;;;;;;-141.97;100.00;47815.09;4991541;28;20175;-85
2023/01/23 04:00:16;;;;;;;56.07;22.03;;;;;;;-141.97;100.00;47838.16;4991836;28;20195;-85
2023/01/23 04:02:42;;;;;;;49.27;19.30;;;;;;;-141.97;100.00;47999.63;4975577;28;20176;-84
2023/01/23 04:05:07;;;;;;;55.00;22.00;;;;;;;-141.97;100.00;47932.34;4975390;28;20164;-85
2023/01/23 04:07:33;;;;;;;54.90;22.87;;;;;;;-141.97;100.00;47868.91;4991372;28;20664;-85
2023/01/23 04:09:58;;;;;;;55.30;21.53;;;;;;;-141.97;100.00;47845.84;4991581;28;20175;-85
2023/01/23 04:12:23;;;;;;;56.73;21.13;;;;;;;-141.97;100.00;47863.13;4992718;28;20178;-85
2023/01/23 04:14:49;;;;;;;60.87;22.47;;;;;;;-141.97;100.00;47866.97;4976137;28;20235;-85
2023/01/23 04:17:14;;;;;;;65.90;22.97;;;;;;;-141.97;100.00;47884.28;4991930;28;20163;-85
2023/01/23 04:19:39;;;;;;;60.90;23.50;;;;;;;-141.97;100.00;47926.56;5020100;28;20222;-85
2023/01/23 04:22:05;;;;;;;56.57;22.47;;;;;;;-141.97;100.00;47888.13;5051924;28;20630;-85
2023/01/23 04:24:30;;;;;;;57.93;23.67;;;;;;;-141.97;100.00;47728.59;5053000;28;20244;-86
2023/01/23 04:26:56;;;;;;;59.97;22.53;;;;;;;-141.97;100.00;47868.91;5053102;28;20169;-84
2023/01/23 04:29:21;;;;;;;57.20;22.57;;;;;;;-141.97;100.00;47807.41;5053821;28;20613;-85
2023/01/23 04:31:47;;;;;;;68.63;24.33;;;;;;;-141.97;100.00;47918.88;5054009;28;20229;-85
2023/01/23 04:34:12;;;;;;;59.47;23.80;;;;;;;-141.97;100.00;47851.59;5054268;28;20362;-84
2023/01/23 04:36:38;;;;;;;57.97;21.27;;;;;;;-141.97;100.00;47901.59;5051544;28;20189;-84
2023/01/23 04:39:03;;;;;;;61.03;22.13;;;;;;;-141.97;100.00;47888.13;5052737;28;20287;-85
2023/01/23 04:41:32;;;;;;;55.87;21.77;;;;;;;-141.97;100.00;47772.78;5053193;28;20618;-84
2023/01/23 04:44:18;;;;;;;57.00;21.93;;;;;;;-141.97;100.00;47953.50;5053598;28;20212;-85
2023/01/23 04:46:43;;;;;;;51.80;21.10;;;;;;;-141.97;100.00;47886.22;5052879;28;20228;-84
2023/01/23 04:49:08;;;;;;;54.23;21.00;;;;;;;-141.97;100.00;47818.94;5052167;28;20200;-85
2023/01/23 04:51:33;;;;;;;51.13;20.33;;;;;;;-141.97;100.00;47895.81;5052661;28;20498;-83
2023/01/23 04:53:59;;;;;;;53.37;20.80;;;;;;;-141.97;100.00;47880.44;5061619;28;20598;-85
2023/01/23 04:56:24;;;;;;;47.27;20.53;;;;;;;-141.97;100.00;47980.41;5070480;28;20165;-83
2023/01/23 04:58:52;;;;;;;55.53;21.57;;;;;;;-141.97;100.00;47770.88;5070115;28;20170;-84
2023/01/23 05:01:21;;;;;;;51.70;20.67;;;;;;;-141.97;100.00;47840.06;5069086;28;20533;-84
2023/01/23 05:03:48;;;;;;;46.03;18.67;;;;;;;-141.97;100.00;47868.91;5072061;28;20164;-86
2023/01/23 05:06:13;;;;;;;53.63;19.30;;;;;;;-141.97;100.00;47822.78;5060071;28;20157;-85
2023/01/23 05:08:39;;;;;;;47.43;20.90;;;;;;;-141.97;100.00;47891.97;5054742;28;20601;-85
2023/01/23 05:11:04;;;;;;;52.73;20.73;;;;;;;-141.97;100.00;47893.91;5041117;28;20307;-85
2023/01/23 05:13:29;;;;;;;49.60;19.73;;;;;;;-141.97;100.00;47965.03;5051971;28;20669;-86
2023/01/23 05:15:56;;;;;;;51.73;20.67;;;;;;;-141.97;100.00;47782.41;5052987;28;20263;-85
2023/01/23 05:18:21;;;;;;;43.77;19.03;;;;;;;-141.97;100.00;47795.88;5070054;28;20169;-85
2023/01/23 05:20:47;;;;;;;49.83;19.60;;;;;;;-141.97;100.00;47893.91;5056548;28;20169;-84
2023/01/23 05:23:12;;;;;;;50.67;20.23;;;;;;;-141.97;100.00;47932.34;5072060;28;20169;-83
2023/01/23 05:25:38;;;;;;;46.93;19.23;;;;;;;-141.97;100.00;47872.75;5067815;28;20180;-84
2023/01/23 05:28:03;;;;;;;48.70;19.87;;;;;;;-141.97;100.00;47849.69;5062789;28;20285;-84
2023/01/23 05:30:28;;;;;;;51.70;20.50;;;;;;;-141.97;100.00;47941.94;5054405;28;20248;-84
2023/01/23 05:32:54;;;;;;;50.57;20.57;;;;;;;-141.97;100.00;47749.72;5053373;28;20183;-84
2023/01/23 05:35:19;;;;;;;56.63;21.60;;;;;;;-141.97;100.00;47849.69;5054387;28;20200;-84
2023/01/23 05:37:51;;;;;;;46.00;19.47;;;;;;;-141.97;100.00;47865.06;5052213;28;20626;-85
2023/01/23 05:40:18;;;;;;;53.27;19.40;;;;;;;-141.97;100.00;47953.50;5052345;28;20205;-85
2023/01/23 05:42:44;;;;;;;45.53;19.00;;;;;;;-141.97;100.00;47938.09;5052026;28;20169;-84
2023/01/23 05:45:10;;;;;;;53.13;18.60;;;;;;;-141.97;100.00;47959.25;5052244;28;20173;-84
2023/01/23 05:47:36;;;;;;;47.23;18.50;;;;;;;-141.97;100.00;47920.81;5066834;28;20169;-84
2023/01/23 05:50:02;;;;;;;37.37;14.87;;;;;;;-141.97;100.00;47828.53;5073275;28;20585;-84
2023/01/23 05:52:27;;;;;;;41.00;16.50;;;;;;;-141.97;100.00;47878.53;5057724;28;20171;-83
2023/01/23 05:54:53;;;;;;;42.30;17.93;;;;;;;-141.97;100.00;47872.75;5056105;28;20192;-84
2023/01/23 05:57:18;;;;;;;42.53;19.07;;;;;;;-141.97;100.00;47886.22;5055787;28;20200;-85
2023/01/23 05:59:44;;;;;;;46.57;19.23;;;;;;;-141.97;100.00;47822.78;5055044;28;20169;-85
2023/01/23 06:02:09;;;;;;;51.37;20.97;;;;;;;-141.97;100.00;47849.69;5055568;28;20165;-84
2023/01/23 06:04:35;;;;;;;46.43;19.43;;;;;;;-141.97;100.00;47865.06;5056806;28;20638;-84
2023/01/23 06:07:00;;;;;;;45.13;18.17;;;;;;;-141.97;100.00;47866.97;5056397;28;20322;-85
2023/01/23 06:09:25;;;;;;;52.87;19.27;;;;;;;-141.97;100.00;47872.75;5057029;28;20173;-85
2023/01/23 06:11:51;;;;;;;46.50;20.27;;;;;;;-141.97;100.00;47840.06;5047456;28;20224;-85
2023/01/23 06:14:16;;;;;;;58.10;23.53;;;;;;;-141.97;100.00;47909.28;5055971;28;20304;-83
2023/01/23 06:16:42;;;;;;;55.57;21.47;;;;;;;-141.97;100.00;47903.50;5055907;28;20177;-84
2023/01/23 06:19:08;;;;;;;49.57;22.10;;;;;;;-141.97;100.00;47920.81;5057073;28;20165;-83
2023/01/23 06:21:34;;;;;;;77.97;29.97;;;;;;;-141.97;100.00;47938.09;5057846;28;20185;-84
2023/01/23 06:23:59;;;;;;;69.70;29.13;;;;;;;-141.97;100.00;47797.78;5056059;28;20299;-84
2023/01/23 06:26:25;;;;;;;79.53;34.10;;;;;;;-141.97;100.00;47930.41;5056084;28;20165;-84
2023/01/23 06:28:50;;;;;;;53.00;22.13;;;;;;;-141.97;100.00;47874.69;5056234;28;20632;-84
2023/01/23 06:31:16;;;;;;;74.90;32.30;;;;;;;-141.97;100.00;47884.28;5056190;28;20326;-83
2023/01/23 06:33:41;;;;;;;53.87;24.93;;;;;;;-141.97;100.00;47888.13;5055105;28;20212;-84
2023/01/23 06:36:07;;;;;;;63.13;26.87;;;;;;;-141.97;100.00;47907.34;5055239;28;20359;-83
2023/01/23 06:38:33;;;;;;;51.17;22.00;;;;;;;-141.97;100.00;47845.84;5055438;28;20169;-85
2023/01/23 06:40:58;;;;;;;39.90;17.63;;;;;;;-141.97;100.00;47880.44;5054681;28;20177;-82
2023/01/23 06:43:24;;;;;;;44.37;18.53;;;;;;;-141.97;100.00;47888.13;5055422;28;20204;-84
2023/01/23 06:45:50;;;;;;;90.50;35.40;;;;;;;-141.97;100.00;47916.97;5055699;28;20216;-83
2023/01/23 06:48:16;;;;;;;55.87;21.50;;;;;;;-141.97;100.00;47847.75;5054894;28;20200;-84
2023/01/23 06:50:42;;;;;;;45.90;20.90;;;;;;;-141.97;100.00;47938.09;5056158;28;20549;-84
2023/01/23 06:53:11;;;;;;;50.37;20.43;;;;;;;-141.97;100.00;47968.88;5055558;28;20196;-84
2023/01/23 06:55:36;;;;;;;54.57;24.63;;;;;;;-141.97;100.00;47895.81;5056982;28;20184;-84
2023/01/23 06:58:02;;;;;;;53.60;23.87;;;;;;;-141.97;100.00;47890.06;5055122;28;20626;-84
2023/01/23 07:00:27;;;;;;;54.60;23.40;;;;;;;-141.97;100.00;47965.03;5055902;28;20268;-85
2023/01/23 07:02:57;;;;;;;747.23;212.73;;;;;;;-141.97;100.00;47903.50;5055445;28;20197;-85
2023/01/23 07:05:23;;;;;;;123.47;37.07;;;;;;;-141.97;100.00;47866.97;5054335;28;20146;-85
2023/01/23 07:07:50;;;;;;;434.93;138.67;;;;;;;-141.97;100.00;47826.63;5052116;28;20169;-84
2023/01/23 07:10:16;;;;;;;346.43;111.87;;;;;;;-141.97;100.00;47747.81;5053730;28;20162;-84
2023/01/23 07:12:41;;;;;;;86.63;35.57;;;;;;;-141.97;100.00;47845.84;5050814;28;20229;-83
2023/01/23 07:15:07;;;;;;;48.23;21.03;;;;;;;-141.97;100.00;47878.53;5056769;28;20237;-83
2023/01/23 07:17:33;;;;;;;46.70;21.17;;;;;;;-141.97;100.00;47891.97;5054363;28;20157;-83
2023/01/23 07:19:58;;;;;;;51.73;24.07;;;;;;;-141.97;100.00;47751.66;5053572;28;20161;-85
2023/01/23 07:22:23;;;;;;;43.97;17.67;;;;;;;-141.97;100.00;47913.13;5052297;28;20170;-84
2023/01/23 07:24:49;;;;;;;46.93;21.80;;;;;;;-141.97;100.00;47826.63;5053047;28;20174;-84
2023/01/23 07:27:15;;;;;;;40.73;18.90;;;;;;;-141.97;100.00;47834.31;5052398;28;20173;-84
2023/01/23 07:29:41;;;;;;;60.17;27.57;;;;;;;-141.97;100.00;47911.19;5052935;28;20216;-84
2023/01/23 07:32:07;;;;;;;49.23;24.77;;;;;;;-141.97;100.00;47886.22;5053171;28;20671;-82
2023/01/23 07:34:32;;;;;;;44.17;19.50;;;;;;;-141.97;100.00;47909.28;5052925;28;20193;-82
2023/01/23 07:36:58;;;;;;;41.50;18.97;;;;;;;-141.97;100.00;47899.66;5069238;28;20736;-82
2023/01/23 07:39:24;;;;;;;38.70;18.87;;;;;;;-141.97;100.00;47866.97;5053232;28;20303;-82
2023/01/23 07:41:49;;;;;;;40.73;20.67;;;;;;;-141.97;100.00;47918.88;5053719;28;20606;-82
2023/01/23 07:44:17;;;;;;;42.07;20.47;;;;;;;-141.97;100.00;47949.66;5051939;28;20350;-82
2023/01/23 07:46:44;;;;;;;37.80;18.67;;;;;;;-141.97;100.00;47886.22;5052706;28;20176;-82
2023/01/23 07:49:10;;;;;;;38.73;18.50;;;;;;;-141.97;100.00;47847.75;5052972;28;20165;-82
2023/01/23 07:51:35;;;;;;;33.07;15.47;;;;;;;-141.97;100.00;47913.13;5057478;28;20172;-82
2023/01/23 07:54:01;;;;;;;37.00;16.43;;;;;;;-141.97;100.00;47905.44;5059401;28;20193;-83
2023/01/23 07:56:26;;;;;;;41.23;18.40;;;;;;;-141.97;100.00;47943.88;5055431;28;20166;-83
2023/01/23 07:58:52;;;;;;;34.03;15.43;;;;;;;-141.97;100.00;47855.44;5055170;28;20173;-82
2023/01/23 08:01:18;;;;;;;34.27;16.37;;;;;;;-141.97;100.00;47903.50;5055750;28;20169;-82
2023/01/23 08:03:46;;;;;;;37.73;17.43;;;;;;;-141.97;100.00;47957.34;5058350;28;20194;-83
2023/01/23 08:06:12;;;;;;;35.73;16.17;;;;;;;-141.97;100.00;47893.91;5052992;28;20218;-84
2023/01/23 08:08:38;;;;;;;32.40;16.17;;;;;;;-141.97;100.00;47830.47;5059144;28;20248;-83
2023/01/23 08:11:06;;;;;;;58.43;29.23;;;;;;;-141.97;100.00;47788.19;5069208;28;20178;-85
2023/01/23 08:13:31;;;;;;;90.37;37.07;;;;;;;-141.97;100.00;47968.88;5049389;28;20233;-84
2023/01/23 08:15:58;;;;;;;195.20;80.40;;;;;;;-141.97;100.00;47886.22;5067513;28;20736;-84
2023/01/23 08:18:30;;;;;;;48.23;19.53;;;;;;;-141.97;100.00;47882.38;5060250;28;20210;-83
2023/01/23 08:20:57;;;;;;;45.97;19.63;;;;;;;-141.97;100.00;47899.66;5058849;28;20161;-82
2023/01/23 08:23:31;;;;;;;51.07;20.40;;;;;;;-141.97;100.00;47891.97;5064975;28;20271;-84
2023/01/23 08:26:02;;;;;;;39.47;17.93;;;;;;;-141.97;100.00;47897.75;5067156;28;20161;-83
2023/01/23 08:28:27;;;;;;;38.53;16.50;;;;;;;-141.97;100.00;47807.41;5057850;28;20249;-83
2023/01/23 08:30:53;;;;;;;41.13;16.43;;;;;;;-141.97;100.00;47884.28;5056871;28;20185;-84
2023/01/23 08:33:19;;;;;;;44.63;16.53;;;;;;;-141.97;100.00;47820.84;5070770;28;20165;-84
2023/01/23 08:35:49;;;;;;;36.67;16.60;;;;;;;-141.97;100.00;47845.84;5081784;28;20260;-83
2023/01/23 08:38:17;;;;;;;37.97;17.33;;;;;;;-141.97;100.00;47815.09;5076422;28;20252;-84
2023/01/23 08:40:42;;;;;;;40.97;17.07;;;;;;;-141.97;100.00;47847.75;5086010;28;20205;-84
2023/01/23 08:43:09;;;;;;;42.50;17.07;;;;;;;-141.97;100.00;47897.75;5092484;28;20149;-84
2023/01/23 08:45:35;;;;;;;40.17;16.90;;;;;;;-141.97;100.00;47872.75;5091422;28;20179;-84
2023/01/23 08:48:01;;;;;;;40.90;17.00;;;;;;;-141.97;100.00;47824.69;5074993;28;20169;-85
2023/01/23 08:50:27;;;;;;;41.23;16.17;;;;;;;-141.97;100.00;47934.25;5089795;28;20264;-83
2023/01/23 08:52:53;;;;;;;38.63;18.77;;;;;;;-141.97;100.00;47955.41;5073365;28;20638;-83
2023/01/23 08:55:19;;;;;;;42.07;20.03;;;;;;;-141.97;100.00;47863.13;5073460;28;20275;-83
2023/01/23 08:57:44;;;;;;;38.67;16.97;;;;;;;-141.97;100.00;47782.41;5073694;28;20212;-82
2023/01/23 09:00:10;;;;;;;43.73;19.50;;;;;;;-141.97;100.00;47872.75;5074039;28;20203;-83
2023/01/23 09:02:36;;;;;;;39.43;17.20;;;;;;;-141.97;100.00;47868.91;5074539;28;20167;-84
2023/01/23 09:05:01;;;;;;;40.13;16.67;;;;;;;-141.97;100.00;47918.88;5073696;28;20165;-83
2023/01/23 09:07:26;;;;;;;40.30;18.17;;;;;;;-141.97;100.00;47903.50;5064447;28;20196;-83
2023/01/23 09:09:53;;;;;;;47.67;19.63;;;;;;;-141.97;100.00;47770.88;5055765;28;20280;-83
2023/01/23 09:12:19;;;;;;;147.87;52.33;;;;;;;-141.97;100.00;47815.09;5043906;28;20260;-83
2023/01/23 09:14:44;;;;;;;153.07;60.80;;;;;;;-141.97;100.00;47857.38;5053425;28;20260;-82
2023/01/23 09:17:10;;;;;;;51.47;23.87;;;;;;;-141.97;100.00;47876.59;5052593;28;20189;-83
2023/01/23 09:19:35;;;;;;;43.97;21.60;;;;;;;-141.97;100.00;47799.72;5053097;28;20192;-83
2023/01/23 09:22:01;;;;;;;38.27;16.43;;;;;;;-141.97;100.00;47922.72;5054910;28;20221;-84
2023/01/23 09:24:27;;;;;;;33.70;16.00;;;;;;;-141.97;100.00;47890.06;5053061;28;20177;-83
2023/01/23 09:26:52;;;;;;;41.53;16.23;;;;;;;-141.97;100.00;47753.56;5053209;28;20149;-83
2023/01/23 09:29:17;;;;;;;39.67;17.13;;;;;;;-141.97;100.00;47886.22;5053633;28;20165;-83
2023/01/23 09:31:43;;;;;;;39.53;17.20;;;;;;;-141.97;100.00;47861.22;5059502;28;20204;-82
2023/01/23 09:34:08;;;;;;;40.07;19.30;;;;;;;-141.97;100.00;47895.81;5053316;28;20207;-82
2023/01/23 09:36:34;;;;;;;39.03;18.40;;;;;;;-141.97;100.00;47918.88;5065701;28;20634;-82
2023/01/23 09:39:02;;;;;;;37.00;17.93;;;;;;;-141.97;100.00;47903.50;5055601;28;20163;-82
2023/01/23 09:41:28;;;;;;;42.33;18.43;;;;;;;-141.97;100.00;47903.50;5065020;28;20173;-82
2023/01/23 09:44:21;;;;;;;40.33;16.53;;;;;;;-141.97;100.00;47876.59;5079314;28;20160;-83
2023/01/23 09:46:54;;;;;;;40.17;16.83;;;;;;;-141.97;100.00;47865.06;5185041;22;20291;-84
2023/01/23 09:49:29;;;;;;;43.37;21.77;;;;;;;-141.97;100.00;47868.91;5095631;28;20186;-83
2023/01/23 09:52:14;;;;;;;47.17;20.47;;;;;;;-141.97;100.00;47868.91;5094769;28;20231;-83
2023/01/23 09:54:45;;;;;;;45.20;19.27;;;;;;;-141.97;100.00;47872.75;5094307;28;20176;-83
2023/01/23 09:57:19;;;;;;;39.97;18.27;;;;;;;-141.97;100.00;47843.91;5092794;28;20168;-83
2023/01/23 09:59:54;;;;;;;36.87;15.97;;;;;;;-141.97;100.00;47855.44;5072291;28;20172;-84
2023/01/23 10:02:22;;;;;;;51.00;23.73;;;;;;;-141.97;100.00;47842.00;5091434;28;20156;-83
2023/01/23 10:04:51;;;;;;;111.77;46.57;;;;;;;-141.97;100.00;47845.84;5088196;28;20172;-83
2023/01/23 10:07:38;;;;;;;44.63;21.03;;;;;;;-141.97;100.00;47922.72;5069115;28;20181;-84
2023/01/23 10:10:06;;;;;;;116.27;44.70;;;;;;;-141.97;100.00;47878.53;5073499;28;20208;-83
2023/01/23 10:12:54;;;;;;;45.17;20.87;;;;;;;-141.97;100.00;47915.03;5058745;28;20665;-83
2023/01/23 10:15:51;;;;;;;33.50;15.83;;;;;;;-141.97;100.00;47874.69;5078783;28;20204;-83
2023/01/23 10:18:35;;;;;;;34.37;15.03;;;;;;;-141.97;100.00;47901.59;5074818;28;20172;-83
2023/01/23 10:21:42;;;;;;;36.67;15.87;;;;;;;-141.97;100.00;47865.06;5074086;28;20165;-82
2023/01/23 10:24:19;;;;;;;32.47;16.00;;;;;;;-141.97;100.00;47888.13;5019302;28;20186;-82
2023/01/23 10:26:46;;;;;;;37.03;19.00;;;;;;;-141.97;100.00;47893.91;5032713;28;20186;-82
2023/01/23 10:29:31;;;;;;;32.40;14.40;;;;;;;-141.97;100.00;47872.75;4990979;28;20673;-82
2023/01/23 10:32:00;;;;;;;44.17;17.53;;;;;;;-141.97;100.00;47849.69;4989267;28;20318;-82
2023/01/23 10:34:47;;;;;;;34.73;15.20;;;;;;;-141.97;100.00;47876.59;5003131;28;20233;-84
2023/01/23 10:37:36;;;;;;;38.67;16.17;;;;;;;-141.97;100.00;47870.81;5006793;28;20502;-82
2023/01/23 10:40:07;;;;;;;31.50;15.00;;;;;;;-141.97;100.00;47907.34;5001342;28;20192;-81
2023/01/23 10:42:32;;;;;;;38.67;16.10;;;;;;;-141.97;100.00;47888.13;4992667;28;20282;-81
2023/01/23 10:44:58;;;;;;;39.43;16.70;;;;;;;-141.97;100.00;47918.88;5014808;28;20273;-82
2023/01/23 10:47:33;;;;;;;37.83;16.07;;;;;;;-141.97;100.00;47822.78;5016394;28;20214;-82
2023/01/23 10:49:58;;;;;;;29.93;13.90;;;;;;;-141.97;100.00;47834.31;5032512;28;20182;-83
2023/01/23 10:52:34;;;;;;;40.30;17.10;;;;;;;-141.97;100.00;47882.38;5037529;28;20257;-82
2023/01/23 10:55:02;;;;;;;40.77;17.50;;;;;;;-141.97;100.00;47876.59;5039888;28;20692;-81
2023/01/23 10:57:32;;;;;;;36.00;16.63;;;;;;;-141.97;100.00;47886.22;5044435;28;20151;-83
2023/01/23 11:00:26;;;;;;;35.00;15.73;;;;;;;-141.97;100.00;47918.88;5056893;28;20181;-81
2023/01/23 11:02:52;;;;;;;38.30;16.17;;;;;;;-141.97;100.00;47880.44;5075891;28;20207;-84